sensor_id;sensor_type;location;lat;lon;timestamp;P1;durP1;ratioP1;P2;durP2;ratioP2
39140;SDS011;24875;48.436;10.298;2023-09-30T00:01:40;10.40;;;3.50;;
39140;SDS011;24875;48.436;10.298;2023-09-30T00:04:07;16.23;;;4.40;;
39140;SDS011;24875;48.436;10.298;2023-09-30T00:06:34;11.52;;;3.08;;
39140;SDS011;24875;48.436;10.298;2023-09-30T00:09:00;14.65;;;4.35;;
39140;SDS011;24875;48.436;10.298;2023-09-30T00:11:27;14.95;;;4.55;;
39140;SDS011;24875;48.436;10.298;2023-09-30T00:13:55;18.02;;;3.67;;
39140;SDS011;24875;48.436;10.298;2023-09-30T00:16:22;12.80;;;4.22;;
39140;SDS011;24875;48.436;10.298;2023-09-30T00:18:48;10.60;;;4.13;;
39140;SDS011;24875;48.436;10.298;2023-09-30T00:21:15;14.80;;;3.92;;
39140;SDS011;24875;48.436;10.298;2023-09-30T00:23:41;11.30;;;3.50;;
39140;SDS011;24875;48.436;10.298;2023-09-30T00:26:08;12.70;;;4.13;;
39140;SDS011;24875;48.436;10.298;2023-09-30T00:28:34;15.52;;;3.63;;
39140;SDS011;24875;48.436;10.298;2023-09-30T00:31:05;10.02;;;3.88;;
39140;SDS011;24875;48.436;10.298;2023-09-30T00:33:33;12.10;;;3.50;;
39140;SDS011;24875;48.436;10.298;2023-09-30T00:36:05;14.15;;;4.35;;
39140;SDS011;24875;48.436;10.298;2023-09-30T00:38:32;15.25;;;3.75;;
39140;SDS011;24875;48.436;10.298;2023-09-30T00:40:58;15.80;;;3.78;;
39140;SDS011;24875;48.436;10.298;2023-09-30T00:43:25;15.55;;;4.10;;
39140;SDS011;24875;48.436;10.298;2023-09-30T00:45:51;12.57;;;3.95;;
39140;SDS011;24875;48.436;10.298;2023-09-30T00:48:29;11.38;;;3.45;;
39140;SDS011;24875;48.436;10.298;2023-09-30T00:50:55;8.63;;;3.33;;
39140;SDS011;24875;48.436;10.298;2023-09-30T00:53:22;19.15;;;3.58;;
39140;SDS011;24875;48.436;10.298;2023-09-30T00:55:49;10.65;;;3.33;;
39140;SDS011;24875;48.436;10.298;2023-09-30T00:58:17;12.50;;;3.65;;
39140;SDS011;24875;48.436;10.298;2023-09-30T01:00:44;7.65;;;3.22;;
39140;SDS011;24875;48.436;10.298;2023-09-30T01:03:12;14.05;;;4.22;;
39140;SDS011;24875;48.436;10.298;2023-09-30T01:05:41;9.27;;;3.25;;
39140;SDS011;24875;48.436;10.298;2023-09-30T01:08:08;17.98;;;4.50;;
39140;SDS011;24875;48.436;10.298;2023-09-30T01:10:35;15.48;;;4.20;;
39140;SDS011;24875;48.436;10.298;2023-09-30T01:13:02;14.95;;;3.47;;
39140;SDS011;24875;48.436;10.298;2023-09-30T01:15:28;9.35;;;3.72;;
39140;SDS011;24875;48.436;10.298;2023-09-30T01:17:55;15.35;;;5.65;;
39140;SDS011;24875;48.436;10.298;2023-09-30T01:20:23;13.88;;;3.45;;
39140;SDS011;24875;48.436;10.298;2023-09-30T01:22:50;11.95;;;4.30;;
39140;SDS011;24875;48.436;10.298;2023-09-30T01:25:17;13.55;;;3.60;;
39140;SDS011;24875;48.436;10.298;2023-09-30T01:27:44;15.85;;;4.43;;
39140;SDS011;24875;48.436;10.298;2023-09-30T01:30:11;11.23;;;3.38;;
39140;SDS011;24875;48.436;10.298;2023-09-30T01:32:38;17.38;;;3.88;;
39140;SDS011;24875;48.436;10.298;2023-09-30T01:35:05;14.10;;;3.95;;
39140;SDS011;24875;48.436;10.298;2023-09-30T01:37:33;14.10;;;4.25;;
39140;SDS011;24875;48.436;10.298;2023-09-30T01:40:01;9.35;;;2.95;;
39140;SDS011;24875;48.436;10.298;2023-09-30T01:42:28;12.57;;;3.55;;
39140;SDS011;24875;48.436;10.298;2023-09-30T01:44:55;11.38;;;4.05;;
39140;SDS011;24875;48.436;10.298;2023-09-30T01:47:22;15.07;;;4.10;;
39140;SDS011;24875;48.436;10.298;2023-09-30T01:49:49;12.75;;;3.55;;
39140;SDS011;24875;48.436;10.298;2023-09-30T01:52:16;14.57;;;5.20;;
39140;SDS011;24875;48.436;10.298;2023-09-30T01:54:42;14.80;;;3.78;;
39140;SDS011;24875;48.436;10.298;2023-09-30T01:57:10;11.85;;;4.07;;
39140;SDS011;24875;48.436;10.298;2023-09-30T01:59:36;12.32;;;2.83;;
39140;SDS011;24875;48.436;10.298;2023-09-30T02:02:04;18.20;;;4.78;;
39140;SDS011;24875;48.436;10.298;2023-09-30T02:04:30;14.70;;;2.85;;
39140;SDS011;24875;48.436;10.298;2023-09-30T02:06:57;13.35;;;3.72;;
39140;SDS011;24875;48.436;10.298;2023-09-30T02:09:23;13.40;;;3.42;;
39140;SDS011;24875;48.436;10.298;2023-09-30T02:11:50;14.27;;;3.78;;
39140;SDS011;24875;48.436;10.298;2023-09-30T02:14:18;14.82;;;4.28;;
39140;SDS011;24875;48.436;10.298;2023-09-30T02:16:44;12.63;;;3.40;;
39140;SDS011;24875;48.436;10.298;2023-09-30T02:19:11;16.60;;;3.83;;
39140;SDS011;24875;48.436;10.298;2023-09-30T02:21:38;12.23;;;4.30;;
39140;SDS011;24875;48.436;10.298;2023-09-30T02:24:05;12.85;;;4.03;;
39140;SDS011;24875;48.436;10.298;2023-09-30T02:26:32;12.75;;;4.15;;
39140;SDS011;24875;48.436;10.298;2023-09-30T02:28:59;15.90;;;4.28;;
39140;SDS011;24875;48.436;10.298;2023-09-30T02:31:27;11.90;;;4.07;;
39140;SDS011;24875;48.436;10.298;2023-09-30T02:33:53;11.25;;;2.88;;
39140;SDS011;24875;48.436;10.298;2023-09-30T02:36:20;14.57;;;4.43;;
39140;SDS011;24875;48.436;10.298;2023-09-30T02:38:46;15.00;;;4.28;;
39140;SDS011;24875;48.436;10.298;2023-09-30T02:41:14;14.10;;;3.72;;
39140;SDS011;24875;48.436;10.298;2023-09-30T02:43:42;9.80;;;3.30;;
39140;SDS011;24875;48.436;10.298;2023-09-30T02:46:09;10.80;;;3.08;;
39140;SDS011;24875;48.436;10.298;2023-09-30T02:48:37;10.65;;;3.17;;
39140;SDS011;24875;48.436;10.298;2023-09-30T02:51:03;10.73;;;4.18;;
39140;SDS011;24875;48.436;10.298;2023-09-30T02:53:30;10.93;;;2.67;;
39140;SDS011;24875;48.436;10.298;2023-09-30T02:55:56;17.02;;;3.90;;
39140;SDS011;24875;48.436;10.298;2023-09-30T02:58:25;16.00;;;4.13;;
39140;SDS011;24875;48.436;10.298;2023-09-30T03:00:51;13.77;;;4.32;;
39140;SDS011;24875;48.436;10.298;2023-09-30T03:03:19;12.23;;;4.18;;
39140;SDS011;24875;48.436;10.298;2023-09-30T03:05:48;8.35;;;2.85;;
39140;SDS011;24875;48.436;10.298;2023-09-30T03:08:15;8.55;;;3.25;;
39140;SDS011;24875;48.436;10.298;2023-09-30T03:10:41;10.82;;;3.22;;
39140;SDS011;24875;48.436;10.298;2023-09-30T03:13:08;11.32;;;3.58;;
39140;SDS011;24875;48.436;10.298;2023-09-30T03:15:35;10.95;;;3.08;;
39140;SDS011;24875;48.436;10.298;2023-09-30T03:18:01;9.13;;;2.65;;
39140;SDS011;24875;48.436;10.298;2023-09-30T03:20:28;9.13;;;2.67;;
39140;SDS011;24875;48.436;10.298;2023-09-30T03:22:57;13.63;;;4.07;;
39140;SDS011;24875;48.436;10.298;2023-09-30T03:25:24;13.00;;;3.60;;
39140;SDS011;24875;48.436;10.298;2023-09-30T03:27:51;14.45;;;4.40;;
39140;SDS011;24875;48.436;10.298;2023-09-30T03:30:17;12.95;;;4.45;;
39140;SDS011;24875;48.436;10.298;2023-09-30T03:32:46;12.45;;;3.88;;
39140;SDS011;24875;48.436;10.298;2023-09-30T03:35:12;8.98;;;3.05;;
39140;SDS011;24875;48.436;10.298;2023-09-30T03:37:40;12.63;;;3.75;;
39140;SDS011;24875;48.436;10.298;2023-09-30T03:40:08;12.52;;;3.55;;
39140;SDS011;24875;48.436;10.298;2023-09-30T03:42:39;19.80;;;4.53;;
39140;SDS011;24875;48.436;10.298;2023-09-30T03:45:07;11.05;;;3.25;;
39140;SDS011;24875;48.436;10.298;2023-09-30T03:47:35;11.88;;;3.47;;
39140;SDS011;24875;48.436;10.298;2023-09-30T03:50:02;15.93;;;3.67;;
39140;SDS011;24875;48.436;10.298;2023-09-30T03:52:29;15.15;;;3.38;;
39140;SDS011;24875;48.436;10.298;2023-09-30T03:54:58;12.52;;;4.00;;
39140;SDS011;24875;48.436;10.298;2023-09-30T03:57:26;8.10;;;3.60;;
39140;SDS011;24875;48.436;10.298;2023-09-30T03:59:53;12.60;;;3.80;;
39140;SDS011;24875;48.436;10.298;2023-09-30T04:02:19;13.65;;;4.00;;
39140;SDS011;24875;48.436;10.298;2023-09-30T04:04:46;14.82;;;4.18;;
39140;SDS011;24875;48.436;10.298;2023-09-30T04:07:14;13.98;;;3.50;;
39140;SDS011;24875;48.436;10.298;2023-09-30T04:09:41;14.73;;;4.03;;
39140;SDS011;24875;48.436;10.298;2023-09-30T04:12:08;14.20;;;3.35;;
39140;SDS011;24875;48.436;10.298;2023-09-30T04:14:36;15.07;;;3.90;;
39140;SDS011;24875;48.436;10.298;2023-09-30T04:17:02;10.57;;;3.55;;
39140;SDS011;24875;48.436;10.298;2023-09-30T04:19:29;12.07;;;3.65;;
39140;SDS011;24875;48.436;10.298;2023-09-30T04:21:56;11.25;;;3.70;;
39140;SDS011;24875;48.436;10.298;2023-09-30T04:24:22;13.35;;;3.85;;
39140;SDS011;24875;48.436;10.298;2023-09-30T04:26:49;10.80;;;3.30;;
39140;SDS011;24875;48.436;10.298;2023-09-30T04:29:19;15.13;;;3.90;;
39140;SDS011;24875;48.436;10.298;2023-09-30T04:31:47;14.18;;;3.28;;
39140;SDS011;24875;48.436;10.298;2023-09-30T04:34:13;10.15;;;2.97;;
39140;SDS011;24875;48.436;10.298;2023-09-30T04:36:40;8.68;;;2.22;;
39140;SDS011;24875;48.436;10.298;2023-09-30T04:39:07;10.18;;;3.15;;
39140;SDS011;24875;48.436;10.298;2023-09-30T04:41:36;15.35;;;3.92;;
39140;SDS011;24875;48.436;10.298;2023-09-30T04:44:02;9.52;;;2.80;;
39140;SDS011;24875;48.436;10.298;2023-09-30T04:46:29;14.43;;;4.03;;
39140;SDS011;24875;48.436;10.298;2023-09-30T04:48:57;9.85;;;2.83;;
39140;SDS011;24875;48.436;10.298;2023-09-30T04:51:23;13.40;;;3.15;;
39140;SDS011;24875;48.436;10.298;2023-09-30T04:53:51;12.43;;;3.40;;
39140;SDS011;24875;48.436;10.298;2023-09-30T04:56:19;7.68;;;2.72;;
39140;SDS011;24875;48.436;10.298;2023-09-30T04:58:46;12.05;;;3.65;;
39140;SDS011;24875;48.436;10.298;2023-09-30T05:01:13;8.98;;;3.30;;
39140;SDS011;24875;48.436;10.298;2023-09-30T05:03:40;10.65;;;3.05;;
39140;SDS011;24875;48.436;10.298;2023-09-30T05:06:07;11.60;;;3.20;;
39140;SDS011;24875;48.436;10.298;2023-09-30T05:08:34;10.18;;;3.58;;
39140;SDS011;24875;48.436;10.298;2023-09-30T05:11:00;14.63;;;3.38;;
39140;SDS011;24875;48.436;10.298;2023-09-30T05:13:27;11.10;;;2.63;;
39140;SDS011;24875;48.436;10.298;2023-09-30T05:15:54;13.77;;;2.78;;
39140;SDS011;24875;48.436;10.298;2023-09-30T05:18:20;14.77;;;4.07;;
39140;SDS011;24875;48.436;10.298;2023-09-30T05:20:47;10.00;;;3.30;;
39140;SDS011;24875;48.436;10.298;2023-09-30T05:23:15;10.68;;;3.35;;
39140;SDS011;24875;48.436;10.298;2023-09-30T05:25:42;9.85;;;3.70;;
39140;SDS011;24875;48.436;10.298;2023-09-30T05:28:09;9.00;;;3.83;;
39140;SDS011;24875;48.436;10.298;2023-09-30T05:30:36;11.43;;;3.38;;
39140;SDS011;24875;48.436;10.298;2023-09-30T05:33:04;9.10;;;3.45;;
39140;SDS011;24875;48.436;10.298;2023-09-30T05:35:30;13.45;;;4.03;;
39140;SDS011;24875;48.436;10.298;2023-09-30T05:37:57;8.73;;;2.70;;
39140;SDS011;24875;48.436;10.298;2023-09-30T05:40:25;6.68;;;2.63;;
39140;SDS011;24875;48.436;10.298;2023-09-30T05:42:55;9.88;;;3.10;;
39140;SDS011;24875;48.436;10.298;2023-09-30T05:45:23;9.85;;;3.58;;
39140;SDS011;24875;48.436;10.298;2023-09-30T05:47:51;11.60;;;4.05;;
39140;SDS011;24875;48.436;10.298;2023-09-30T05:50:19;5.95;;;2.85;;
39140;SDS011;24875;48.436;10.298;2023-09-30T05:52:49;16.33;;;3.08;;
39140;SDS011;24875;48.436;10.298;2023-09-30T05:55:16;8.48;;;3.42;;
39140;SDS011;24875;48.436;10.298;2023-09-30T05:57:46;8.52;;;3.03;;
39140;SDS011;24875;48.436;10.298;2023-09-30T06:00:13;12.73;;;4.53;;
39140;SDS011;24875;48.436;10.298;2023-09-30T06:02:53;10.50;;;3.10;;
39140;SDS011;24875;48.436;10.298;2023-09-30T06:05:20;8.05;;;3.38;;
39140;SDS011;24875;48.436;10.298;2023-09-30T06:07:48;12.52;;;3.78;;
39140;SDS011;24875;48.436;10.298;2023-09-30T06:10:15;8.30;;;3.38;;
39140;SDS011;24875;48.436;10.298;2023-09-30T06:12:43;14.30;;;4.03;;
39140;SDS011;24875;48.436;10.298;2023-09-30T06:15:12;9.38;;;2.53;;
39140;SDS011;24875;48.436;10.298;2023-09-30T06:17:39;12.45;;;4.05;;
39140;SDS011;24875;48.436;10.298;2023-09-30T06:20:06;11.25;;;3.30;;
39140;SDS011;24875;48.436;10.298;2023-09-30T06:22:41;13.68;;;4.03;;
39140;SDS011;24875;48.436;10.298;2023-09-30T06:25:07;13.88;;;3.10;;
39140;SDS011;24875;48.436;10.298;2023-09-30T06:27:34;12.45;;;3.42;;
39140;SDS011;24875;48.436;10.298;2023-09-30T06:30:00;9.65;;;3.67;;
39140;SDS011;24875;48.436;10.298;2023-09-30T06:32:28;11.65;;;3.42;;
39140;SDS011;24875;48.436;10.298;2023-09-30T06:34:56;9.07;;;3.30;;
39140;SDS011;24875;48.436;10.298;2023-09-30T06:37:23;12.30;;;2.97;;
39140;SDS011;24875;48.436;10.298;2023-09-30T06:39:51;9.55;;;3.03;;
39140;SDS011;24875;48.436;10.298;2023-09-30T06:42:18;10.02;;;4.22;;
39140;SDS011;24875;48.436;10.298;2023-09-30T06:44:44;8.95;;;2.95;;
39140;SDS011;24875;48.436;10.298;2023-09-30T06:47:11;7.80;;;2.95;;
39140;SDS011;24875;48.436;10.298;2023-09-30T06:49:39;9.32;;;3.25;;
39140;SDS011;24875;48.436;10.298;2023-09-30T06:52:06;9.38;;;3.50;;
39140;SDS011;24875;48.436;10.298;2023-09-30T06:54:33;11.07;;;3.13;;
39140;SDS011;24875;48.436;10.298;2023-09-30T06:56:59;8.88;;;3.03;;
39140;SDS011;24875;48.436;10.298;2023-09-30T06:59:26;9.18;;;3.65;;
39140;SDS011;24875;48.436;10.298;2023-09-30T07:01:52;10.68;;;4.00;;
39140;SDS011;24875;48.436;10.298;2023-09-30T07:04:19;8.73;;;3.03;;
39140;SDS011;24875;48.436;10.298;2023-09-30T07:06:48;6.63;;;2.45;;
39140;SDS011;24875;48.436;10.298;2023-09-30T07:09:14;9.27;;;2.72;;
39140;SDS011;24875;48.436;10.298;2023-09-30T07:11:41;9.63;;;2.88;;
39140;SDS011;24875;48.436;10.298;2023-09-30T07:14:09;8.02;;;2.47;;
39140;SDS011;24875;48.436;10.298;2023-09-30T07:16:35;10.85;;;3.40;;
39140;SDS011;24875;48.436;10.298;2023-09-30T07:19:02;10.65;;;3.03;;
39140;SDS011;24875;48.436;10.298;2023-09-30T07:21:29;7.30;;;3.38;;
39140;SDS011;24875;48.436;10.298;2023-09-30T07:23:56;10.85;;;3.63;;
39140;SDS011;24875;48.436;10.298;2023-09-30T07:26:23;7.20;;;2.40;;
39140;SDS011;24875;48.436;10.298;2023-09-30T07:28:50;9.20;;;2.80;;
39140;SDS011;24875;48.436;10.298;2023-09-30T07:31:19;12.48;;;3.42;;
39140;SDS011;24875;48.436;10.298;2023-09-30T07:33:47;9.02;;;2.42;;
39140;SDS011;24875;48.436;10.298;2023-09-30T07:36:14;6.07;;;2.78;;
39140;SDS011;24875;48.436;10.298;2023-09-30T07:38:40;7.45;;;2.97;;
39140;SDS011;24875;48.436;10.298;2023-09-30T07:41:08;9.48;;;3.33;;
39140;SDS011;24875;48.436;10.298;2023-09-30T07:43:35;8.10;;;2.42;;
39140;SDS011;24875;48.436;10.298;2023-09-30T07:46:05;7.85;;;3.20;;
39140;SDS011;24875;48.436;10.298;2023-09-30T07:48:32;9.68;;;3.03;;
39140;SDS011;24875;48.436;10.298;2023-09-30T07:50:58;10.32;;;2.80;;
39140;SDS011;24875;48.436;10.298;2023-09-30T07:53:25;12.23;;;3.72;;
39140;SDS011;24875;48.436;10.298;2023-09-30T07:55:51;10.77;;;2.97;;
39140;SDS011;24875;48.436;10.298;2023-09-30T07:58:20;8.63;;;2.35;;
39140;SDS011;24875;48.436;10.298;2023-09-30T08:00:47;7.93;;;2.33;;
39140;SDS011;24875;48.436;10.298;2023-09-30T08:03:14;8.77;;;2.63;;
39140;SDS011;24875;48.436;10.298;2023-09-30T08:05:41;6.60;;;2.30;;
39140;SDS011;24875;48.436;10.298;2023-09-30T08:08:07;4.97;;;1.80;;
39140;SDS011;24875;48.436;10.298;2023-09-30T08:10:34;5.60;;;1.70;;
39140;SDS011;24875;48.436;10.298;2023-09-30T08:13:01;5.45;;;2.08;;
39140;SDS011;24875;48.436;10.298;2023-09-30T08:15:30;5.68;;;2.35;;
39140;SDS011;24875;48.436;10.298;2023-09-30T08:17:56;6.40;;;2.10;;
39140;SDS011;24875;48.436;10.298;2023-09-30T08:20:23;5.68;;;2.17;;
39140;SDS011;24875;48.436;10.298;2023-09-30T08:22:50;5.47;;;2.15;;
39140;SDS011;24875;48.436;10.298;2023-09-30T08:25:16;5.40;;;2.53;;
39140;SDS011;24875;48.436;10.298;2023-09-30T08:27:43;7.95;;;2.63;;
39140;SDS011;24875;48.436;10.298;2023-09-30T08:30:10;7.53;;;2.50;;
39140;SDS011;24875;48.436;10.298;2023-09-30T08:32:38;3.65;;;2.33;;
39140;SDS011;24875;48.436;10.298;2023-09-30T08:35:05;6.53;;;1.70;;
39140;SDS011;24875;48.436;10.298;2023-09-30T08:37:33;9.13;;;2.22;;
39140;SDS011;24875;48.436;10.298;2023-09-30T08:39:59;3.83;;;1.85;;
39140;SDS011;24875;48.436;10.298;2023-09-30T08:42:26;7.53;;;1.90;;
39140;SDS011;24875;48.436;10.298;2023-09-30T08:44:57;5.50;;;2.20;;
39140;SDS011;24875;48.436;10.298;2023-09-30T08:47:24;5.90;;;1.77;;
39140;SDS011;24875;48.436;10.298;2023-09-30T08:49:53;4.60;;;2.25;;
39140;SDS011;24875;48.436;10.298;2023-09-30T08:52:22;5.38;;;1.98;;
39140;SDS011;24875;48.436;10.298;2023-09-30T08:54:50;5.18;;;2.47;;
39140;SDS011;24875;48.436;10.298;2023-09-30T08:57:18;5.55;;;1.50;;
39140;SDS011;24875;48.436;10.298;2023-09-30T08:59:46;5.45;;;2.30;;
39140;SDS011;24875;48.436;10.298;2023-09-30T09:02:14;4.80;;;2.10;;
39140;SDS011;24875;48.436;10.298;2023-09-30T09:04:41;2.67;;;1.70;;
39140;SDS011;24875;48.436;10.298;2023-09-30T09:07:10;6.03;;;1.83;;
39140;SDS011;24875;48.436;10.298;2023-09-30T09:09:36;3.33;;;2.03;;
39140;SDS011;24875;48.436;10.298;2023-09-30T09:12:03;5.10;;;2.42;;
39140;SDS011;24875;48.436;10.298;2023-09-30T09:14:36;4.93;;;1.38;;
39140;SDS011;24875;48.436;10.298;2023-09-30T09:17:06;6.30;;;2.22;;
39140;SDS011;24875;48.436;10.298;2023-09-30T09:19:33;3.30;;;1.55;;
39140;SDS011;24875;48.436;10.298;2023-09-30T09:22:00;4.53;;;1.70;;
39140;SDS011;24875;48.436;10.298;2023-09-30T09:24:31;8.85;;;3.05;;
39140;SDS011;24875;48.436;10.298;2023-09-30T09:27:05;3.90;;;1.55;;
39140;SDS011;24875;48.436;10.298;2023-09-30T09:29:32;11.68;;;2.55;;
39140;SDS011;24875;48.436;10.298;2023-09-30T09:32:08;3.45;;;1.40;;
39140;SDS011;24875;48.436;10.298;2023-09-30T09:34:36;5.65;;;1.42;;
39140;SDS011;24875;48.436;10.298;2023-09-30T09:37:12;3.10;;;1.35;;
39140;SDS011;24875;48.436;10.298;2023-09-30T09:39:41;2.88;;;1.52;;
39140;SDS011;24875;48.436;10.298;2023-09-30T09:42:22;3.47;;;1.75;;
39140;SDS011;24875;48.436;10.298;2023-09-30T09:44:50;5.10;;;2.50;;
39140;SDS011;24875;48.436;10.298;2023-09-30T09:47:20;6.45;;;2.22;;
39140;SDS011;24875;48.436;10.298;2023-09-30T09:49:47;7.63;;;2.30;;
39140;SDS011;24875;48.436;10.298;2023-09-30T09:52:14;7.43;;;2.00;;
39140;SDS011;24875;48.436;10.298;2023-09-30T09:54:44;6.78;;;1.90;;
39140;SDS011;24875;48.436;10.298;2023-09-30T09:57:11;5.50;;;1.80;;
39140;SDS011;24875;48.436;10.298;2023-09-30T09:59:39;6.72;;;2.35;;
39140;SDS011;24875;48.436;10.298;2023-09-30T10:02:09;6.10;;;2.30;;
39140;SDS011;24875;48.436;10.298;2023-09-30T10:04:39;5.82;;;2.20;;
39140;SDS011;24875;48.436;10.298;2023-09-30T10:07:06;4.53;;;1.60;;
39140;SDS011;24875;48.436;10.298;2023-09-30T10:09:36;6.72;;;2.25;;
39140;SDS011;24875;48.436;10.298;2023-09-30T10:12:05;6.22;;;1.60;;
39140;SDS011;24875;48.436;10.298;2023-09-30T10:14:33;4.82;;;1.55;;
39140;SDS011;24875;48.436;10.298;2023-09-30T10:17:01;4.97;;;2.00;;
39140;SDS011;24875;48.436;10.298;2023-09-30T10:19:28;2.65;;;1.67;;
39140;SDS011;24875;48.436;10.298;2023-09-30T10:24:47;5.75;;;1.65;;
39140;SDS011;24875;48.436;10.298;2023-09-30T10:27:34;6.35;;;2.17;;
39140;SDS011;24875;48.436;10.298;2023-09-30T10:30:06;5.63;;;1.98;;
39140;SDS011;24875;48.436;10.298;2023-09-30T10:35:46;6.10;;;2.00;;
39140;SDS011;24875;48.436;10.298;2023-09-30T10:41:07;4.38;;;1.65;;
39140;SDS011;24875;48.436;10.298;2023-09-30T10:43:36;11.13;;;1.95;;
39140;SDS011;24875;48.436;10.298;2023-09-30T10:49:14;8.77;;;1.98;;
39140;SDS011;24875;48.436;10.298;2023-09-30T10:51:58;8.35;;;2.42;;
39140;SDS011;24875;48.436;10.298;2023-09-30T10:54:26;7.78;;;2.25;;
39140;SDS011;24875;48.436;10.298;2023-09-30T10:56:53;8.85;;;2.40;;
39140;SDS011;24875;48.436;10.298;2023-09-30T10:59:22;4.85;;;1.58;;
39140;SDS011;24875;48.436;10.298;2023-09-30T11:01:50;4.72;;;1.83;;
39140;SDS011;24875;48.436;10.298;2023-09-30T11:04:17;7.97;;;2.50;;
39140;SDS011;24875;48.436;10.298;2023-09-30T11:06:45;5.25;;;1.92;;
39140;SDS011;24875;48.436;10.298;2023-09-30T11:09:15;6.35;;;2.13;;
39140;SDS011;24875;48.436;10.298;2023-09-30T11:11:43;5.93;;;2.40;;
39140;SDS011;24875;48.436;10.298;2023-09-30T11:14:17;6.85;;;2.20;;
39140;SDS011;24875;48.436;10.298;2023-09-30T11:16:45;4.95;;;2.00;;
39140;SDS011;24875;48.436;10.298;2023-09-30T11:19:13;3.58;;;1.48;;
39140;SDS011;24875;48.436;10.298;2023-09-30T11:21:40;5.07;;;1.77;;
39140;SDS011;24875;48.436;10.298;2023-09-30T11:24:08;8.70;;;1.50;;
39140;SDS011;24875;48.436;10.298;2023-09-30T11:26:35;5.47;;;2.75;;
39140;SDS011;24875;48.436;10.298;2023-09-30T11:29:05;7.35;;;2.05;;
39140;SDS011;24875;48.436;10.298;2023-09-30T11:31:32;8.18;;;2.28;;
39140;SDS011;24875;48.436;10.298;2023-09-30T11:34:00;6.82;;;1.88;;
39140;SDS011;24875;48.436;10.298;2023-09-30T11:36:29;5.97;;;2.13;;
39140;SDS011;24875;48.436;10.298;2023-09-30T11:38:56;6.90;;;2.47;;
39140;SDS011;24875;48.436;10.298;2023-09-30T11:41:31;5.65;;;1.67;;
39140;SDS011;24875;48.436;10.298;2023-09-30T11:43:59;3.53;;;1.30;;
39140;SDS011;24875;48.436;10.298;2023-09-30T11:46:29;4.30;;;1.45;;
39140;SDS011;24875;48.436;10.298;2023-09-30T11:48:59;7.18;;;2.05;;
39140;SDS011;24875;48.436;10.298;2023-09-30T11:51:28;6.82;;;1.60;;
39140;SDS011;24875;48.436;10.298;2023-09-30T11:53:56;6.93;;;1.80;;
39140;SDS011;24875;48.436;10.298;2023-09-30T11:56:23;5.65;;;1.88;;
39140;SDS011;24875;48.436;10.298;2023-09-30T11:58:54;4.88;;;2.05;;
39140;SDS011;24875;48.436;10.298;2023-09-30T12:01:21;9.13;;;2.30;;
39140;SDS011;24875;48.436;10.298;2023-09-30T12:03:50;6.00;;;1.80;;
39140;SDS011;24875;48.436;10.298;2023-09-30T12:06:19;11.10;;;2.05;;
39140;SDS011;24875;48.436;10.298;2023-09-30T12:08:46;4.65;;;1.65;;
39140;SDS011;24875;48.436;10.298;2023-09-30T12:11:12;5.38;;;1.80;;
39140;SDS011;24875;48.436;10.298;2023-09-30T12:13:40;7.55;;;2.13;;
39140;SDS011;24875;48.436;10.298;2023-09-30T12:16:09;5.43;;;2.00;;
39140;SDS011;24875;48.436;10.298;2023-09-30T12:18:36;8.77;;;2.20;;
39140;SDS011;24875;48.436;10.298;2023-09-30T12:21:03;5.38;;;2.03;;
39140;SDS011;24875;48.436;10.298;2023-09-30T12:23:33;5.30;;;1.75;;
39140;SDS011;24875;48.436;10.298;2023-09-30T12:26:00;6.10;;;2.42;;
39140;SDS011;24875;48.436;10.298;2023-09-30T12:28:30;7.65;;;1.77;;
39140;SDS011;24875;48.436;10.298;2023-09-30T12:30:57;5.40;;;2.35;;
39140;SDS011;24875;48.436;10.298;2023-09-30T12:33:23;7.40;;;2.25;;
39140;SDS011;24875;48.436;10.298;2023-09-30T12:35:53;7.55;;;1.98;;
39140;SDS011;24875;48.436;10.298;2023-09-30T12:38:19;5.32;;;1.90;;
39140;SDS011;24875;48.436;10.298;2023-09-30T12:40:47;8.07;;;1.80;;
39140;SDS011;24875;48.436;10.298;2023-09-30T12:43:14;7.97;;;2.95;;
39140;SDS011;24875;48.436;10.298;2023-09-30T12:45:40;6.40;;;2.05;;
39140;SDS011;24875;48.436;10.298;2023-09-30T12:48:07;4.40;;;1.80;;
39140;SDS011;24875;48.436;10.298;2023-09-30T12:50:33;5.05;;;2.00;;
39140;SDS011;24875;48.436;10.298;2023-09-30T12:53:00;9.25;;;2.63;;
39140;SDS011;24875;48.436;10.298;2023-09-30T12:55:27;7.95;;;2.20;;
39140;SDS011;24875;48.436;10.298;2023-09-30T12:57:55;7.47;;;2.30;;
39140;SDS011;24875;48.436;10.298;2023-09-30T13:00:22;6.32;;;2.00;;
39140;SDS011;24875;48.436;10.298;2023-09-30T13:02:50;4.85;;;1.77;;
39140;SDS011;24875;48.436;10.298;2023-09-30T13:05:17;7.30;;;2.33;;
39140;SDS011;24875;48.436;10.298;2023-09-30T13:07:43;6.20;;;1.50;;
39140;SDS011;24875;48.436;10.298;2023-09-30T13:10:11;9.23;;;2.05;;
39140;SDS011;24875;48.436;10.298;2023-09-30T13:12:38;4.20;;;1.15;;
39140;SDS011;24875;48.436;10.298;2023-09-30T13:15:06;6.93;;;1.90;;
39140;SDS011;24875;48.436;10.298;2023-09-30T13:17:34;9.75;;;2.60;;
39140;SDS011;24875;48.436;10.298;2023-09-30T13:20:01;5.38;;;1.58;;
39140;SDS011;24875;48.436;10.298;2023-09-30T13:22:30;6.78;;;2.22;;
39140;SDS011;24875;48.436;10.298;2023-09-30T13:24:57;6.43;;;2.55;;
39140;SDS011;24875;48.436;10.298;2023-09-30T13:27:23;4.18;;;1.67;;
39140;SDS011;24875;48.436;10.298;2023-09-30T13:29:50;6.20;;;1.50;;
39140;SDS011;24875;48.436;10.298;2023-09-30T13:32:17;6.32;;;1.73;;
39140;SDS011;24875;48.436;10.298;2023-09-30T13:34:44;7.25;;;2.53;;
39140;SDS011;24875;48.436;10.298;2023-09-30T13:37:11;7.82;;;1.80;;
39140;SDS011;24875;48.436;10.298;2023-09-30T13:39:38;6.60;;;2.17;;
39140;SDS011;24875;48.436;10.298;2023-09-30T13:42:04;3.38;;;1.60;;
39140;SDS011;24875;48.436;10.298;2023-09-30T13:44:32;6.45;;;2.03;;
39140;SDS011;24875;48.436;10.298;2023-09-30T13:46:58;4.97;;;1.80;;
39140;SDS011;24875;48.436;10.298;2023-09-30T13:49:26;7.93;;;2.67;;
39140;SDS011;24875;48.436;10.298;2023-09-30T13:51:53;7.68;;;2.15;;
39140;SDS011;24875;48.436;10.298;2023-09-30T13:54:19;6.05;;;2.20;;
39140;SDS011;24875;48.436;10.298;2023-09-30T13:56:46;6.78;;;1.67;;
39140;SDS011;24875;48.436;10.298;2023-09-30T13:59:13;10.88;;;2.10;;
39140;SDS011;24875;48.436;10.298;2023-09-30T14:01:39;6.20;;;2.00;;
39140;SDS011;24875;48.436;10.298;2023-09-30T14:04:06;7.70;;;2.15;;
39140;SDS011;24875;48.436;10.298;2023-09-30T14:06:34;4.72;;;2.25;;
39140;SDS011;24875;48.436;10.298;2023-09-30T14:09:02;8.43;;;2.45;;
39140;SDS011;24875;48.436;10.298;2023-09-30T14:11:28;7.80;;;2.40;;
39140;SDS011;24875;48.436;10.298;2023-09-30T14:13:55;11.25;;;2.85;;
39140;SDS011;24875;48.436;10.298;2023-09-30T14:16:22;5.15;;;2.13;;
39140;SDS011;24875;48.436;10.298;2023-09-30T14:18:48;3.88;;;1.70;;
39140;SDS011;24875;48.436;10.298;2023-09-30T14:21:16;8.00;;;2.25;;
39140;SDS011;24875;48.436;10.298;2023-09-30T14:23:44;4.22;;;1.80;;
39140;SDS011;24875;48.436;10.298;2023-09-30T14:26:11;7.30;;;1.92;;
39140;SDS011;24875;48.436;10.298;2023-09-30T14:28:38;7.72;;;2.58;;
39140;SDS011;24875;48.436;10.298;2023-09-30T14:31:04;5.22;;;2.38;;
39140;SDS011;24875;48.436;10.298;2023-09-30T14:33:31;6.28;;;2.28;;
39140;SDS011;24875;48.436;10.298;2023-09-30T14:35:57;7.18;;;2.55;;
39140;SDS011;24875;48.436;10.298;2023-09-30T14:38:24;7.03;;;2.72;;
39140;SDS011;24875;48.436;10.298;2023-09-30T14:40:52;7.38;;;2.30;;
39140;SDS011;24875;48.436;10.298;2023-09-30T14:43:18;4.03;;;1.85;;